createdAt,value
2017-07-06T00:00:53.375Z,0
2017-07-06T00:01:55.405Z,0
2017-07-06T00:02:57.445Z,0
2017-07-06T00:03:59.484Z,0
2017-07-06T00:05:01.519Z,0
2017-07-06T00:06:03.550Z,0
2017-07-06T00:07:05.592Z,0
2017-07-06T00:08:07.625Z,0
2017-07-06T00:09:09.663Z,0
2017-07-06T00:10:11.697Z,0
2017-07-06T00:11:13.741Z,0
2017-07-06T00:12:15.768Z,0
2017-07-06T00:13:17.808Z,0
2017-07-06T00:14:19.838Z,0
2017-07-06T00:15:21.875Z,0
2017-07-06T00:16:23.918Z,0
2017-07-06T00:17:25.957Z,0
2017-07-06T00:18:28.001Z,0
2017-07-06T00:19:30.040Z,0
2017-07-06T00:20:32.083Z,0
2017-07-06T00:21:34.123Z,0
2017-07-06T00:22:36.504Z,0
2017-07-06T00:23:38.533Z,0
2017-07-06T00:24:40.577Z,0
2017-07-06T00:25:42.618Z,0
2017-07-06T00:26:44.654Z,0
2017-07-06T00:27:46.694Z,0
2017-07-06T00:28:48.737Z,0
2017-07-06T00:29:50.767Z,0
2017-07-06T00:30:52.813Z,0
2017-07-06T00:31:54.847Z,0
2017-07-06T00:32:56.889Z,0
2017-07-06T00:33:58.924Z,0
2017-07-06T00:35:00.964Z,0
2017-07-06T00:36:03.002Z,0
2017-07-06T00:37:05.042Z,0
2017-07-06T00:38:07.081Z,0
2017-07-06T00:39:09.122Z,0
2017-07-06T00:40:11.157Z,0
2017-07-06T00:41:13.204Z,0
2017-07-06T00:42:15.229Z,0
2017-07-06T00:43:17.274Z,0
2017-07-06T00:44:19.312Z,0
2017-07-06T00:45:21.356Z,0
2017-07-06T00:46:23.390Z,0
2017-07-06T00:47:25.436Z,0
2017-07-06T00:48:27.464Z,0
2017-07-06T00:49:29.496Z,0
2017-07-06T00:50:31.529Z,0
2017-07-06T00:51:33.579Z,0
2017-07-06T00:52:35.617Z,0
2017-07-06T00:53:37.659Z,0
2017-07-06T00:54:39.684Z,0
2017-07-06T00:55:41.721Z,0
2017-07-06T00:56:43.767Z,0
2017-07-06T00:57:45.805Z,0
2017-07-06T00:58:47.843Z,0
2017-07-06T00:59:49.881Z,0
2017-07-06T01:00:51.919Z,0
2017-07-06T01:01:53.948Z,0
2017-07-06T01:02:55.982Z,0
2017-07-06T01:03:58.022Z,0
2017-07-06T01:05:00.060Z,0
2017-07-06T01:06:02.091Z,0
2017-07-06T01:07:04.126Z,0
2017-07-06T01:08:06.172Z,0
2017-07-06T01:09:08.209Z,0
2017-07-06T01:10:10.248Z,0
2017-07-06T01:11:12.286Z,0
2017-07-06T01:12:14.321Z,0
2017-07-06T01:13:16.347Z,0
2017-07-06T01:14:18.386Z,0
2017-07-06T01:15:20.437Z,0
2017-07-06T01:16:22.472Z,0
2017-07-06T01:17:24.518Z,0
2017-07-06T01:18:26.549Z,0
2017-07-06T01:19:28.587Z,0
2017-07-06T01:20:30.620Z,0
2017-07-06T01:21:32.650Z,0
2017-07-06T01:22:34.702Z,0
2017-07-06T01:23:36.742Z,0
2017-07-06T01:24:38.772Z,0
2017-07-06T01:25:40.812Z,0
2017-07-06T01:26:42.846Z,0
2017-07-06T01:27:44.884Z,0
2017-07-06T01:28:46.920Z,0
2017-07-06T01:29:49.007Z,0
2017-07-06T01:30:51.339Z,0
2017-07-06T01:31:53.385Z,0
2017-07-06T01:32:55.423Z,0
2017-07-06T01:33:57.459Z,0
2017-07-06T01:34:59.499Z,0
2017-07-06T01:36:01.938Z,0
2017-07-06T01:37:03.973Z,0
2017-07-06T01:38:06.012Z,0
2017-07-06T01:39:08.054Z,0
2017-07-06T01:40:10.112Z,0
2017-07-06T01:41:12.140Z,0
2017-07-06T01:42:14.178Z,0
2017-07-06T01:43:16.211Z,0
2017-07-06T01:44:18.249Z,0
2017-07-06T01:45:20.293Z,0
2017-07-06T01:46:22.342Z,0
2017-07-06T01:47:24.382Z,0
2017-07-06T01:48:26.417Z,0
2017-07-06T01:49:28.798Z,0
2017-07-06T01:50:30.834Z,0
2017-07-06T01:51:32.879Z,0
2017-07-06T01:52:34.917Z,0
2017-07-06T01:53:36.958Z,0
2017-07-06T01:54:39.353Z,0
2017-07-06T01:55:41.374Z,0
2017-07-06T01:56:43.412Z,0
2017-07-06T01:57:45.801Z,0
2017-07-06T01:58:47.841Z,0
2017-07-06T01:59:49.879Z,0
2017-07-06T02:00:52.274Z,0
2017-07-06T02:01:54.306Z,0
2017-07-06T02:02:56.340Z,0
2017-07-06T02:03:58.372Z,0
2017-07-06T02:05:00.420Z,0
2017-07-06T02:06:02.455Z,0
2017-07-06T02:07:04.492Z,0
2017-07-06T02:08:06.523Z,0
2017-07-06T02:09:08.561Z,0
2017-07-06T02:10:10.592Z,0
2017-07-06T02:11:12.631Z,0
2017-07-06T02:12:14.663Z,0
2017-07-06T02:13:16.698Z,0
2017-07-06T02:14:18.740Z,0
2017-07-06T02:15:20.778Z,0
2017-07-06T02:16:22.814Z,0
2017-07-06T02:17:24.840Z,0
2017-07-06T02:18:26.883Z,0
2017-07-06T02:19:28.919Z,0
2017-07-06T02:20:30.957Z,0
2017-07-06T02:21:32.993Z,0
2017-07-06T02:22:35.031Z,0
2017-07-06T02:23:37.067Z,0
2017-07-06T02:24:39.098Z,0
2017-07-06T02:25:41.136Z,0
2017-07-06T02:26:43.191Z,0
2017-07-06T02:27:45.225Z,0
2017-07-06T02:28:47.271Z,0
2017-07-06T02:29:49.310Z,0
2017-07-06T02:30:51.343Z,0
2017-07-06T02:31:53.383Z,0
2017-07-06T02:32:55.423Z,0
2017-07-06T02:33:57.462Z,0
2017-07-06T02:34:59.500Z,0
2017-07-06T02:36:01.528Z,0
2017-07-06T02:37:03.573Z,0
2017-07-06T02:38:05.611Z,0
2017-07-06T02:39:07.648Z,0
2017-07-06T02:40:09.693Z,0
2017-07-06T02:41:11.737Z,0
2017-07-06T02:42:13.774Z,0
2017-07-06T02:43:15.806Z,1
2017-07-06T02:44:17.845Z,1
2017-07-06T02:45:19.892Z,1
2017-07-06T02:46:22.276Z,1
2017-07-06T02:47:24.305Z,1
2017-07-06T02:48:26.341Z,1
2017-07-06T02:49:28.379Z,1
2017-07-06T02:50:30.429Z,1
2017-07-06T02:51:32.466Z,1
2017-07-06T02:52:34.500Z,1
2017-07-06T02:53:36.548Z,1
2017-07-06T02:54:38.588Z,2
2017-07-06T02:55:40.627Z,2
2017-07-06T02:56:42.670Z,2
2017-07-06T02:57:44.715Z,2
2017-07-06T02:58:46.750Z,3
2017-07-06T02:59:48.771Z,3
2017-07-06T03:00:50.811Z,3
2017-07-06T03:01:52.854Z,3
2017-07-06T03:02:54.888Z,3
2017-07-06T03:03:56.932Z,3
2017-07-06T03:04:58.972Z,3
2017-07-06T03:06:01.006Z,4
2017-07-06T03:07:03.046Z,4
2017-07-06T03:08:05.426Z,4
2017-07-06T03:09:07.827Z,4
2017-07-06T03:10:09.865Z,4
2017-07-06T03:11:11.892Z,4
2017-07-06T03:12:13.935Z,5
2017-07-06T03:13:15.974Z,5
2017-07-06T03:14:18.007Z,5
2017-07-06T03:15:20.047Z,5
2017-07-06T03:16:22.091Z,5
2017-07-06T03:17:24.131Z,6
2017-07-06T03:18:26.165Z,6
2017-07-06T03:19:28.204Z,7
2017-07-06T03:20:30.247Z,7
2017-07-06T03:21:32.284Z,7
2017-07-06T03:22:34.321Z,8
2017-07-06T03:23:36.358Z,8
2017-07-06T03:24:38.390Z,8
2017-07-06T03:25:40.441Z,9
2017-07-06T03:26:42.481Z,9
2017-07-06T03:27:44.524Z,9
2017-07-06T03:28:46.561Z,10
2017-07-06T03:29:48.601Z,11
2017-07-06T03:30:50.647Z,11
2017-07-06T03:31:53.032Z,11
2017-07-06T03:32:55.068Z,11
2017-07-06T03:33:57.117Z,11
2017-07-06T03:34:59.150Z,12
2017-07-06T03:36:01.190Z,12
2017-07-06T03:37:03.218Z,13
2017-07-06T03:38:05.256Z,13
2017-07-06T03:39:07.289Z,14
2017-07-06T03:40:09.334Z,14
2017-07-06T03:41:11.365Z,14
2017-07-06T03:42:13.416Z,15
2017-07-06T03:43:15.446Z,15
2017-07-06T03:44:17.497Z,15
2017-07-06T03:45:19.532Z,16
2017-07-06T03:46:21.575Z,16
2017-07-06T03:47:23.625Z,15
2017-07-06T03:48:25.665Z,15
2017-07-06T03:49:27.710Z,15
2017-07-06T03:50:29.757Z,15
2017-07-06T03:51:31.779Z,16
2017-07-06T03:52:33.822Z,16
2017-07-06T03:53:35.858Z,16
2017-07-06T03:54:37.896Z,16
2017-07-06T03:55:39.934Z,15
2017-07-06T03:56:41.974Z,16
2017-07-06T03:57:44.007Z,16
2017-07-06T03:58:46.045Z,17
2017-07-06T03:59:48.078Z,18
2017-07-06T04:00:50.128Z,18
2017-07-06T04:01:52.171Z,19
2017-07-06T04:02:54.212Z,19
2017-07-06T04:03:56.242Z,20
2017-07-06T04:04:58.282Z,21
2017-07-06T04:06:00.316Z,21
2017-07-06T04:07:02.351Z,22
2017-07-06T04:08:04.411Z,22
2017-07-06T04:09:06.450Z,23
2017-07-06T04:10:08.527Z,23
2017-07-06T04:11:10.525Z,22
2017-07-06T04:12:12.568Z,22
2017-07-06T04:13:14.614Z,22
2017-07-06T04:14:16.660Z,22
2017-07-06T04:15:18.702Z,23
2017-07-06T04:16:20.751Z,23
2017-07-06T04:17:22.784Z,24
2017-07-06T04:18:24.822Z,25
2017-07-06T04:19:26.863Z,26
2017-07-06T04:20:28.907Z,27
2017-07-06T04:21:30.941Z,28
2017-07-06T04:22:32.985Z,29
2017-07-06T04:23:35.020Z,29
2017-07-06T04:24:37.070Z,30
2017-07-06T04:25:39.813Z,30
2017-07-06T04:26:41.857Z,30
2017-07-06T04:27:43.900Z,30
2017-07-06T04:28:45.939Z,31
2017-07-06T04:29:47.969Z,31
2017-07-06T04:30:50.024Z,32
2017-07-06T04:31:52.055Z,33
2017-07-06T04:32:54.093Z,34
2017-07-06T04:33:56.136Z,34
2017-07-06T04:34:58.178Z,35
2017-07-06T04:36:00.216Z,35
2017-07-06T04:37:02.254Z,37
2017-07-06T04:38:04.295Z,38
2017-07-06T04:39:06.355Z,38
2017-07-06T04:40:08.391Z,38
2017-07-06T04:41:10.426Z,38
2017-07-06T04:42:12.463Z,37
2017-07-06T04:43:14.509Z,37
2017-07-06T04:44:16.548Z,36
2017-07-06T04:45:18.589Z,36
2017-07-06T04:46:20.631Z,36
2017-07-06T04:47:22.674Z,35
2017-07-06T04:48:24.767Z,34
2017-07-06T04:49:26.833Z,32
2017-07-06T04:50:28.874Z,32
2017-07-06T04:51:30.916Z,33
2017-07-06T04:52:32.957Z,34
2017-07-06T04:53:34.998Z,34
2017-07-06T04:54:37.046Z,32
2017-07-06T04:55:39.090Z,32
2017-07-06T04:56:41.131Z,33
2017-07-06T04:57:43.177Z,34
2017-07-06T04:58:45.239Z,36
2017-07-06T04:59:47.273Z,37
2017-07-06T05:00:49.318Z,37
2017-07-06T05:01:51.360Z,36
2017-07-06T05:02:53.416Z,37
2017-07-06T05:03:55.467Z,39
2017-07-06T05:04:57.498Z,41
2017-07-06T05:05:59.539Z,42
2017-07-06T05:07:01.597Z,43
2017-07-06T05:08:03.696Z,45
2017-07-06T05:09:05.743Z,48
2017-07-06T05:10:08.123Z,51
2017-07-06T05:11:10.169Z,52
2017-07-06T05:12:12.197Z,53
2017-07-06T05:13:14.234Z,53
2017-07-06T05:14:16.285Z,51
2017-07-06T05:15:18.326Z,50
2017-07-06T05:16:20.374Z,49
2017-07-06T05:17:22.416Z,50
2017-07-06T05:18:24.466Z,52
2017-07-06T05:19:26.508Z,53
2017-07-06T05:20:28.551Z,53
2017-07-06T05:21:30.584Z,51
2017-07-06T05:22:32.627Z,49
2017-07-06T05:23:34.675Z,50
2017-07-06T05:24:36.710Z,51
2017-07-06T05:25:38.751Z,50
2017-07-06T05:26:40.803Z,51
2017-07-06T05:27:43.191Z,49
2017-07-06T05:28:45.228Z,48
2017-07-06T05:29:47.271Z,49
2017-07-06T05:30:49.315Z,50
2017-07-06T05:31:51.356Z,51
2017-07-06T05:32:53.404Z,51
2017-07-06T05:33:55.447Z,48
2017-07-06T05:34:57.492Z,47
2017-07-06T05:35:59.535Z,47
2017-07-06T05:37:01.603Z,50
2017-07-06T05:38:03.657Z,53
2017-07-06T05:39:13.839Z,54
2017-07-06T05:40:16.654Z,52
2017-07-06T05:41:18.717Z,52
2017-07-06T05:42:20.784Z,55
2017-07-06T05:43:22.852Z,61
2017-07-06T05:44:24.923Z,66
2017-07-06T05:45:26.989Z,67
2017-07-06T05:46:29.046Z,65
2017-07-06T05:47:31.113Z,64
2017-07-06T05:48:33.179Z,63
2017-07-06T05:49:35.240Z,64
2017-07-06T05:50:37.304Z,68
2017-07-06T05:51:39.369Z,74
2017-07-06T05:52:41.435Z,81
2017-07-06T05:53:44.181Z,82
2017-07-06T05:54:46.237Z,80
2017-07-06T05:55:48.300Z,79
2017-07-06T05:56:50.365Z,78
2017-07-06T05:57:52.429Z,79
2017-07-06T05:58:54.842Z,80
2017-07-06T05:59:56.902Z,77
2017-07-06T06:00:58.969Z,75
2017-07-06T06:02:01.806Z,77
2017-07-06T06:03:03.866Z,79
2017-07-06T06:04:05.927Z,82
2017-07-06T06:05:07.994Z,84
2017-07-06T06:06:10.064Z,86
2017-07-06T06:07:12.131Z,89
2017-07-06T06:08:14.197Z,91
2017-07-06T06:09:16.271Z,91
2017-07-06T06:10:18.341Z,88
2017-07-06T06:11:20.402Z,87
2017-07-06T06:12:22.470Z,83
2017-07-06T06:13:24.537Z,82
2017-07-06T06:14:26.599Z,82
2017-07-06T06:15:28.663Z,80
2017-07-06T06:16:31.072Z,77
2017-07-06T06:17:33.149Z,72
2017-07-06T06:18:35.220Z,70
2017-07-06T06:19:37.328Z,70
2017-07-06T06:20:39.438Z,70
2017-07-06T06:21:42.839Z,69
2017-07-06T06:22:45.486Z,66
2017-07-06T06:23:47.599Z,69
2017-07-06T06:24:50.370Z,69
2017-07-06T06:25:52.484Z,69
2017-07-06T06:26:55.087Z,71
2017-07-06T06:27:57.232Z,72
2017-07-06T06:28:59.552Z,73
2017-07-06T06:30:01.669Z,73
2017-07-06T06:31:03.763Z,74
2017-07-06T06:32:05.855Z,76
2017-07-06T06:33:07.936Z,74
2017-07-06T06:34:10.012Z,77
2017-07-06T06:35:12.128Z,80
2017-07-06T06:36:14.207Z,81
2017-07-06T06:37:16.330Z,82
2017-07-06T06:38:18.470Z,83
2017-07-06T06:39:20.631Z,85
2017-07-06T06:40:22.734Z,85
2017-07-06T06:41:24.953Z,86
2017-07-06T06:42:27.087Z,88
2017-07-06T06:43:29.210Z,90
2017-07-06T06:44:31.305Z,91
2017-07-06T06:45:33.428Z,91
2017-07-06T06:46:35.584Z,90
2017-07-06T06:47:37.725Z,88
2017-07-06T06:48:39.933Z,89
2017-07-06T06:49:42.038Z,91
2017-07-06T06:50:44.130Z,92
2017-07-06T06:51:46.235Z,93
2017-07-06T06:52:48.312Z,91
2017-07-06T06:53:50.433Z,90
2017-07-06T06:54:52.529Z,90
2017-07-06T06:55:54.601Z,90
2017-07-06T06:56:56.716Z,88
2017-07-06T06:57:58.820Z,87
2017-07-06T06:59:01.247Z,88
2017-07-06T07:00:03.503Z,89
2017-07-06T07:01:05.624Z,89
2017-07-06T07:02:08.083Z,89
2017-07-06T07:03:10.191Z,89
2017-07-06T07:04:12.345Z,87
2017-07-06T07:05:14.476Z,91
2017-07-06T07:06:16.606Z,91
2017-07-06T07:07:18.768Z,91
2017-07-06T07:08:20.882Z,90
2017-07-06T07:09:22.993Z,90
2017-07-06T07:10:25.122Z,89
2017-07-06T07:11:27.243Z,89
2017-07-06T07:12:29.386Z,88
2017-07-06T07:13:31.483Z,88
2017-07-06T07:14:33.600Z,88
2017-07-06T07:15:35.704Z,88
2017-07-06T07:16:37.797Z,89
2017-07-06T07:17:39.857Z,90
2017-07-06T07:18:41.970Z,91
2017-07-06T07:19:44.049Z,92
2017-07-06T07:20:46.191Z,94
2017-07-06T07:21:48.302Z,96
2017-07-06T07:22:50.503Z,99
2017-07-06T07:23:52.625Z,102
2017-07-06T07:24:54.728Z,104
2017-07-06T07:25:56.851Z,106
2017-07-06T07:26:58.971Z,107
2017-07-06T07:28:01.073Z,108
2017-07-06T07:29:03.136Z,109
2017-07-06T07:30:05.208Z,110
2017-07-06T07:31:07.280Z,111
2017-07-06T07:32:09.346Z,111
2017-07-06T07:33:11.420Z,111
2017-07-06T07:34:13.501Z,111
2017-07-06T07:35:15.566Z,110
2017-07-06T07:36:17.628Z,111
2017-07-06T07:37:19.706Z,110
2017-07-06T07:38:21.774Z,113
2017-07-06T07:39:23.850Z,118
2017-07-06T07:40:25.919Z,117
2017-07-06T07:41:27.984Z,116
2017-07-06T07:42:30.055Z,117
2017-07-06T07:43:32.115Z,117
2017-07-06T07:44:34.193Z,121
2017-07-06T07:45:36.263Z,127
2017-07-06T07:46:38.348Z,133
2017-07-06T07:47:40.416Z,133
2017-07-06T07:48:42.485Z,134
2017-07-06T07:49:44.553Z,135
2017-07-06T07:50:46.629Z,136
2017-07-06T07:51:48.697Z,137
2017-07-06T07:52:50.774Z,136
2017-07-06T07:53:52.843Z,138
2017-07-06T07:54:54.913Z,144
2017-07-06T07:55:56.984Z,154
2017-07-06T07:56:59.048Z,164
2017-07-06T07:58:01.114Z,166
2017-07-06T07:59:03.193Z,170
2017-07-06T08:00:05.258Z,176
2017-07-06T08:01:07.330Z,179
2017-07-06T08:02:09.411Z,190
2017-07-06T08:03:11.489Z,187
2017-07-06T08:04:13.562Z,187
2017-07-06T08:05:15.621Z,171
2017-07-06T08:06:17.709Z,170
2017-07-06T08:07:19.788Z,183
2017-07-06T08:08:21.858Z,183
2017-07-06T08:09:23.941Z,170
2017-07-06T08:10:26.009Z,173
2017-07-06T08:11:28.082Z,175
2017-07-06T08:12:30.148Z,177
2017-07-06T08:13:32.218Z,179
2017-07-06T08:14:34.287Z,179
2017-07-06T08:15:36.359Z,190
2017-07-06T08:16:38.435Z,202
2017-07-06T08:17:40.510Z,207
2017-07-06T08:18:42.584Z,203
2017-07-06T08:19:44.655Z,197
2017-07-06T08:20:46.726Z,189
2017-07-06T08:21:48.799Z,168
2017-07-06T08:22:50.880Z,149
2017-07-06T08:23:52.943Z,164
2017-07-06T08:24:55.029Z,193
2017-07-06T08:25:57.101Z,204
2017-07-06T08:26:59.523Z,186
2017-07-06T08:28:01.941Z,152
2017-07-06T08:29:04.010Z,147
2017-07-06T08:30:06.082Z,149
2017-07-06T08:31:08.163Z,131
2017-07-06T08:32:10.231Z,122
2017-07-06T08:33:12.304Z,121
2017-07-06T08:34:14.375Z,123
2017-07-06T08:35:16.443Z,130
2017-07-06T08:36:18.519Z,139
2017-07-06T08:37:20.589Z,153
2017-07-06T08:38:22.665Z,159
2017-07-06T08:39:24.734Z,160
2017-07-06T08:40:26.811Z,162
2017-07-06T08:41:28.882Z,159
2017-07-06T08:42:30.952Z,169
2017-07-06T08:43:33.026Z,174
2017-07-06T08:44:35.098Z,179
2017-07-06T08:45:37.163Z,215
2017-07-06T08:46:39.231Z,191
2017-07-06T08:47:41.299Z,214
2017-07-06T08:48:43.717Z,159
2017-07-06T08:49:45.794Z,164
2017-07-06T08:50:47.861Z,170
2017-07-06T08:51:49.935Z,176
2017-07-06T08:52:52.008Z,197
2017-07-06T08:53:54.079Z,194
2017-07-06T08:54:56.155Z,213
2017-07-06T08:55:58.221Z,226
2017-07-06T08:57:00.301Z,219
2017-07-06T08:58:02.372Z,208
2017-07-06T08:59:04.436Z,183
2017-07-06T09:00:06.506Z,153
2017-07-06T09:01:08.579Z,128
2017-07-06T09:02:10.650Z,105
2017-07-06T09:03:12.717Z,87
2017-07-06T09:04:14.782Z,74
2017-07-06T09:05:16.859Z,73
2017-07-06T09:06:19.289Z,77
2017-07-06T09:07:21.365Z,83
2017-07-06T09:08:23.439Z,89
2017-07-06T09:09:25.506Z,96
2017-07-06T09:10:27.578Z,100
2017-07-06T09:11:29.656Z,102
2017-07-06T09:12:31.729Z,104
2017-07-06T09:13:33.804Z,112
2017-07-06T09:14:35.886Z,121
2017-07-06T09:15:37.948Z,133
2017-07-06T09:16:40.018Z,142
2017-07-06T09:17:42.094Z,150
2017-07-06T09:18:44.167Z,162
2017-07-06T09:19:46.242Z,175
2017-07-06T09:20:48.306Z,177
2017-07-06T09:21:50.382Z,175
2017-07-06T09:22:52.445Z,193
2017-07-06T09:23:54.516Z,212
2017-07-06T09:24:56.590Z,232
2017-07-06T09:25:58.664Z,241
2017-07-06T09:27:00.735Z,431
2017-07-06T09:28:02.798Z,217
2017-07-06T09:29:04.875Z,224
2017-07-06T09:30:06.959Z,328
2017-07-06T09:31:09.043Z,502
2017-07-06T09:32:11.116Z,497
2017-07-06T09:33:13.191Z,542
2017-07-06T09:34:15.272Z,572
2017-07-06T09:35:17.346Z,465
2017-07-06T09:36:19.416Z,697
2017-07-06T09:37:21.500Z,660
2017-07-06T09:38:23.572Z,615
2017-07-06T09:39:25.637Z,213
2017-07-06T09:40:27.709Z,208
2017-07-06T09:41:29.778Z,238
2017-07-06T09:42:31.850Z,518
2017-07-06T09:43:33.928Z,744
2017-07-06T09:44:36.017Z,580
2017-07-06T09:45:38.086Z,691
2017-07-06T09:46:40.167Z,684
2017-07-06T09:47:42.234Z,762
2017-07-06T09:48:44.655Z,704
2017-07-06T09:49:46.728Z,703
2017-07-06T09:50:48.803Z,692
2017-07-06T09:51:50.873Z,758
2017-07-06T09:52:52.947Z,723
2017-07-06T09:53:55.035Z,603
2017-07-06T09:54:57.114Z,510
2017-07-06T09:55:59.194Z,515
2017-07-06T09:57:01.282Z,601
2017-07-06T09:58:03.695Z,627
2017-07-06T09:59:05.767Z,702
2017-07-06T10:00:07.854Z,659
2017-07-06T10:01:09.940Z,708
2017-07-06T10:02:12.028Z,769
2017-07-06T10:03:14.102Z,744
2017-07-06T10:04:16.190Z,724
2017-07-06T10:05:18.264Z,685
2017-07-06T10:06:20.345Z,737
2017-07-06T10:07:22.421Z,726
2017-07-06T10:08:24.503Z,337
2017-07-06T10:09:26.573Z,266
2017-07-06T10:10:28.650Z,243
2017-07-06T10:11:30.712Z,191
2017-07-06T10:12:32.796Z,197
2017-07-06T10:13:34.873Z,190
2017-07-06T10:14:36.953Z,159
2017-07-06T10:15:39.035Z,155
2017-07-06T10:16:41.458Z,160
2017-07-06T10:17:43.540Z,173
2017-07-06T10:18:45.624Z,177
2017-07-06T10:19:47.692Z,182
2017-07-06T10:20:49.779Z,295
2017-07-06T10:21:51.865Z,568
2017-07-06T10:22:53.936Z,383
2017-07-06T10:23:56.021Z,158
2017-07-06T10:24:58.104Z,186
2017-07-06T10:26:00.190Z,213
2017-07-06T10:27:02.275Z,241
2017-07-06T10:28:04.352Z,849
2017-07-06T10:29:06.410Z,966
2017-07-06T10:30:08.498Z,863
2017-07-06T10:31:10.569Z,821
2017-07-06T10:32:12.644Z,864
2017-07-06T10:33:14.723Z,566
2017-07-06T10:34:16.801Z,763
2017-07-06T10:35:18.886Z,777
2017-07-06T10:36:20.954Z,938
2017-07-06T10:37:23.030Z,1071
2017-07-06T10:38:25.116Z,978
2017-07-06T10:39:27.201Z,818
2017-07-06T10:40:29.284Z,895
2017-07-06T10:41:31.363Z,861
2017-07-06T10:42:33.439Z,879
2017-07-06T10:43:35.528Z,876
2017-07-06T10:44:37.618Z,1037
2017-07-06T10:45:39.699Z,1052
2017-07-06T10:46:41.781Z,1047
2017-07-06T10:47:43.862Z,895
2017-07-06T10:48:45.943Z,1036
2017-07-06T10:49:48.030Z,926
2017-07-06T10:50:50.100Z,177
2017-07-06T10:51:52.182Z,168
2017-07-06T10:52:54.267Z,168
2017-07-06T10:53:56.351Z,162
2017-07-06T10:54:58.431Z,142
2017-07-06T10:56:00.510Z,135
2017-07-06T10:57:02.593Z,135
2017-07-06T10:58:04.675Z,138
2017-07-06T10:59:06.750Z,149
2017-07-06T11:00:08.834Z,164
2017-07-06T11:01:10.909Z,176
2017-07-06T11:02:13.346Z,204
2017-07-06T11:03:15.779Z,801
2017-07-06T11:04:17.849Z,758
2017-07-06T11:05:19.929Z,418
2017-07-06T11:06:22.012Z,955
2017-07-06T11:07:24.094Z,984
2017-07-06T11:08:26.176Z,492
2017-07-06T11:09:28.257Z,281
2017-07-06T11:10:30.342Z,938
2017-07-06T11:11:32.424Z,969
2017-07-06T11:12:34.502Z,877
2017-07-06T11:13:36.580Z,653
2017-07-06T11:14:38.663Z,210
2017-07-06T11:15:40.743Z,244
2017-07-06T11:16:42.818Z,664
2017-07-06T11:17:44.909Z,641
2017-07-06T11:18:47.689Z,291
2017-07-06T11:19:49.769Z,267
2017-07-06T11:20:51.853Z,277
2017-07-06T11:21:53.941Z,668
2017-07-06T11:22:56.032Z,775
2017-07-06T11:23:58.104Z,865
2017-07-06T11:25:00.190Z,833
2017-07-06T11:26:02.281Z,709
2017-07-06T11:27:04.365Z,832
2017-07-06T11:28:06.448Z,753
2017-07-06T11:29:08.531Z,715
2017-07-06T11:30:10.610Z,742
2017-07-06T11:31:12.697Z,596
2017-07-06T11:32:14.778Z,612
2017-07-06T11:33:16.875Z,567
2017-07-06T11:34:18.972Z,606
2017-07-06T11:35:21.049Z,590
2017-07-06T11:36:23.504Z,617
2017-07-06T11:37:25.931Z,535
2017-07-06T11:38:28.018Z,582
2017-07-06T11:39:30.100Z,593
2017-07-06T11:40:32.183Z,495
2017-07-06T11:41:34.273Z,247
2017-07-06T11:42:36.362Z,221
2017-07-06T11:43:38.447Z,227
2017-07-06T11:44:40.536Z,436
2017-07-06T11:45:42.612Z,255
2017-07-06T11:46:45.047Z,235
2017-07-06T11:47:47.122Z,226
2017-07-06T11:48:49.211Z,225
2017-07-06T11:49:51.291Z,229
2017-07-06T11:50:53.373Z,232
2017-07-06T11:51:55.455Z,230
2017-07-06T11:52:57.545Z,748
2017-07-06T11:53:59.622Z,282
2017-07-06T11:55:01.709Z,274
2017-07-06T11:56:04.137Z,696
2017-07-06T11:57:06.211Z,280
2017-07-06T11:58:08.293Z,816
2017-07-06T11:59:10.382Z,490
2017-07-06T12:00:12.459Z,480
2017-07-06T12:01:14.549Z,256
2017-07-06T12:02:16.637Z,178
2017-07-06T12:03:18.712Z,169
2017-07-06T12:04:20.799Z,171
2017-07-06T12:05:22.868Z,174
2017-07-06T12:06:24.963Z,186
2017-07-06T12:07:27.052Z,185
2017-07-06T12:08:29.133Z,183
2017-07-06T12:09:31.218Z,183
2017-07-06T12:10:33.306Z,172
2017-07-06T12:11:35.389Z,163
2017-07-06T12:12:37.473Z,168
2017-07-06T12:13:39.558Z,186
2017-07-06T12:14:41.655Z,186
2017-07-06T12:15:43.749Z,206
2017-07-06T12:16:45.826Z,305
2017-07-06T12:17:47.897Z,222
2017-07-06T12:18:49.981Z,206
2017-07-06T12:19:52.065Z,402
2017-07-06T12:20:54.149Z,765
2017-07-06T12:21:56.237Z,678
2017-07-06T12:22:58.311Z,695
2017-07-06T12:24:00.396Z,244
2017-07-06T12:25:02.472Z,278
2017-07-06T12:26:04.565Z,268
2017-07-06T12:27:06.653Z,631
2017-07-06T12:28:08.743Z,600
2017-07-06T12:29:10.819Z,743
2017-07-06T12:30:12.898Z,728
2017-07-06T12:31:14.982Z,198
2017-07-06T12:32:17.073Z,181
2017-07-06T12:33:19.161Z,188
2017-07-06T12:34:21.245Z,221
2017-07-06T12:35:23.333Z,223
2017-07-06T12:36:25.406Z,216
2017-07-06T12:37:27.488Z,214
2017-07-06T12:38:29.573Z,249
2017-07-06T12:39:31.666Z,658
2017-07-06T12:40:33.746Z,845
2017-07-06T12:41:35.837Z,698
2017-07-06T12:42:37.923Z,646
2017-07-06T12:43:39.996Z,206
2017-07-06T12:44:42.073Z,179
2017-07-06T12:45:44.151Z,164
2017-07-06T12:46:46.238Z,150
2017-07-06T12:47:48.327Z,151
2017-07-06T12:48:50.403Z,148
2017-07-06T12:49:52.488Z,144
2017-07-06T12:50:54.566Z,144
2017-07-06T12:51:56.642Z,148
2017-07-06T12:52:58.726Z,154
2017-07-06T12:54:00.799Z,159
2017-07-06T12:55:02.886Z,166
2017-07-06T12:56:04.972Z,167
2017-07-06T12:57:07.059Z,160
2017-07-06T12:58:09.135Z,145
2017-07-06T12:59:11.562Z,139
2017-07-06T13:00:13.990Z,161
2017-07-06T13:01:16.070Z,435
2017-07-06T13:02:18.152Z,545
2017-07-06T13:03:20.236Z,262
2017-07-06T13:05:24.603Z,497
2017-07-06T13:06:26.683Z,384
2017-07-06T13:07:28.794Z,171
2017-07-06T13:08:30.863Z,177
2017-07-06T13:09:32.956Z,172
2017-07-06T13:10:35.046Z,181
2017-07-06T13:11:37.130Z,190
2017-07-06T13:12:39.221Z,190
2017-07-06T13:13:41.309Z,376
2017-07-06T13:14:43.385Z,176
2017-07-06T13:15:45.460Z,199
2017-07-06T13:16:47.549Z,190
2017-07-06T13:17:49.626Z,160
2017-07-06T13:18:51.704Z,177
2017-07-06T13:19:53.792Z,482
2017-07-06T13:20:55.866Z,529
2017-07-06T13:21:57.947Z,560
2017-07-06T13:23:00.025Z,553
2017-07-06T13:24:02.104Z,554
2017-07-06T13:25:04.195Z,536
2017-07-06T13:26:06.271Z,480
2017-07-06T13:27:08.364Z,243
2017-07-06T13:28:10.454Z,191
2017-07-06T13:29:12.529Z,194
2017-07-06T13:30:14.618Z,183
2017-07-06T13:31:16.701Z,181
2017-07-06T13:32:18.783Z,187
2017-07-06T13:33:20.867Z,195
2017-07-06T13:34:22.951Z,206
2017-07-06T13:35:25.031Z,410
2017-07-06T13:36:27.126Z,569
2017-07-06T13:37:29.206Z,549
2017-07-06T13:38:31.290Z,529
2017-07-06T13:39:33.383Z,207
2017-07-06T13:40:35.460Z,167
2017-07-06T13:41:37.541Z,147
2017-07-06T13:42:39.622Z,144
2017-07-06T13:43:41.698Z,147
2017-07-06T13:44:43.777Z,149
2017-07-06T13:45:45.860Z,146
2017-07-06T13:46:47.954Z,143
2017-07-06T13:47:50.054Z,141
2017-07-06T13:48:52.131Z,148
2017-07-06T13:49:54.218Z,157
2017-07-06T13:50:56.301Z,167
2017-07-06T13:51:58.388Z,166
2017-07-06T13:53:00.469Z,152
2017-07-06T13:54:02.542Z,146
2017-07-06T13:55:04.636Z,149
2017-07-06T13:56:06.720Z,161
2017-07-06T13:57:08.797Z,172
2017-07-06T13:58:10.875Z,182
2017-07-06T13:59:12.955Z,185
2017-07-06T14:00:15.035Z,536
2017-07-06T14:01:20.502Z,341
2017-07-06T14:02:22.952Z,343
2017-07-06T14:03:25.044Z,291
2017-07-06T14:04:27.135Z,441
2017-07-06T14:05:29.231Z,453
2017-07-06T14:06:31.316Z,486
2017-07-06T14:07:33.403Z,487
2017-07-06T14:08:35.489Z,454
2017-07-06T14:09:37.586Z,399
2017-07-06T14:10:39.671Z,472
2017-07-06T14:11:41.755Z,466
2017-07-06T14:12:43.843Z,201
2017-07-06T14:13:46.277Z,362
2017-07-06T14:14:48.365Z,475
2017-07-06T14:15:50.452Z,469
2017-07-06T14:16:52.545Z,480
2017-07-06T14:17:54.646Z,483
2017-07-06T14:18:56.717Z,421
2017-07-06T14:19:58.803Z,350
2017-07-06T14:21:00.904Z,360
2017-07-06T14:22:02.991Z,390
2017-07-06T14:23:05.077Z,409
2017-07-06T14:24:07.162Z,419
2017-07-06T14:25:09.253Z,189
2017-07-06T14:26:11.339Z,158
2017-07-06T14:27:13.420Z,177
2017-07-06T14:28:15.517Z,244
2017-07-06T14:29:17.603Z,278
2017-07-06T14:30:20.028Z,410
2017-07-06T14:31:22.114Z,214
2017-07-06T14:32:24.206Z,453
2017-07-06T14:33:26.290Z,464
2017-07-06T14:34:28.376Z,385
2017-07-06T14:35:30.469Z,213
2017-07-06T14:36:32.561Z,261
2017-07-06T14:37:34.644Z,219
2017-07-06T14:38:36.730Z,185